Time;durP1;ratioP1;P1;durP2;ratioP2;P2;SDS_P1;SDS_P2;PMS_P1;PMS_P2;Temp;Humidity;BMP_temperature;BMP_pressure;BME280_temperature;BME280_humidity;BME280_pressure;Samples;Min_cycle;Max_cycle;Signal;HPM_P1;HPM_P2
2024/02/13 00:01:45;;;;;;;17.13;7.97;;;6.20;99.90;;;;;;5072546;28;20549;-73
2024/02/13 00:04:14;;;;;;;9.93;7.03;;;6.20;99.90;;;;;;5074220;28;20223;-75
2024/02/13 00:06:42;;;;;;;12.73;7.07;;;6.10;99.90;;;;;;5065922;28;20199;-73
2024/02/13 00:09:09;;;;;;;11.27;7.38;;;6.10;99.90;;;;;;5069913;28;20274;-73
2024/02/13 00:11:36;;;;;;;14.15;8.40;;;6.10;99.90;;;;;;5070497;28;20224;-73
2024/02/13 00:14:03;;;;;;;14.10;8.50;;;6.00;99.90;;;;;;5071876;28;20227;-73
2024/02/13 00:16:30;;;;;;;12.05;7.60;;;6.00;99.90;;;;;;5072155;28;20261;-72
2024/02/13 00:19:01;;;;;;;17.33;8.60;;;6.00;99.90;;;;;;5071564;28;20199;-73
2024/02/13 00:21:29;;;;;;;16.60;8.13;;;5.90;99.90;;;;;;5068613;28;20628;-73
2024/02/13 00:23:56;;;;;;;11.77;8.75;;;5.90;99.90;;;;;;5069443;28;20269;-73
2024/02/13 00:26:23;;;;;;;13.05;7.90;;;5.90;99.90;;;;;;5070871;28;20207;-73
2024/02/13 00:28:51;;;;;;;11.80;8.20;;;5.90;99.90;;;;;;5073041;28;20337;-72
2024/02/13 00:31:20;;;;;;;16.38;7.60;;;5.90;99.90;;;;;;5069273;28;20280;-74
2024/02/13 00:33:48;;;;;;;12.90;7.30;;;6.00;99.90;;;;;;5068765;28;20227;-73
2024/02/13 00:36:16;;;;;;;29.23;7.75;;;6.10;99.90;;;;;;5060609;28;20200;-74
2024/02/13 00:38:45;;;;;;;10.00;6.78;;;6.10;99.90;;;;;;5058780;28;20207;-74
2024/02/13 00:41:13;;;;;;;16.95;7.93;;;6.20;99.90;;;;;;5071908;28;20198;-72
2024/02/13 00:43:40;;;;;;;10.52;6.05;;;6.20;99.90;;;;;;5073115;28;20223;-74
2024/02/13 00:46:09;;;;;;;14.25;8.60;;;6.30;99.90;;;;;;5073253;28;20211;-73
2024/02/13 00:48:37;;;;;;;9.75;6.75;;;6.30;99.90;;;;;;5073733;28;20200;-73
2024/02/13 00:51:03;;;;;;;13.73;7.03;;;6.30;99.90;;;;;;5060808;28;20216;-74
2024/02/13 00:53:30;;;;;;;16.85;7.53;;;6.30;99.90;;;;;;5070279;28;20227;-74
2024/02/13 00:56:01;;;;;;;11.23;6.20;;;6.30;99.90;;;;;;5069606;28;20662;-74
2024/02/13 00:58:28;;;;;;;9.68;6.90;;;6.40;99.90;;;;;;5067400;28;20250;-72
2024/02/13 01:00:55;;;;;;;12.25;6.57;;;6.30;99.90;;;;;;5069797;28;20257;-73
2024/02/13 01:03:22;;;;;;;7.95;6.57;;;6.30;99.90;;;;;;5067470;28;20643;-73
2024/02/13 01:05:49;;;;;;;12.25;7.25;;;6.30;99.90;;;;;;5073532;28;20207;-74
2024/02/13 01:08:23;;;;;;;10.57;6.47;;;6.30;99.90;;;;;;5062108;28;20195;-74
2024/02/13 01:10:50;;;;;;;10.35;6.18;;;6.30;99.90;;;;;;5064605;28;20291;-74
2024/02/13 01:13:19;;;;;;;13.02;7.88;;;6.40;99.90;;;;;;5062331;28;20674;-74
2024/02/13 01:15:46;;;;;;;8.00;6.72;;;6.40;99.90;;;;;;5068865;28;20607;-74
2024/02/13 01:18:15;;;;;;;11.10;6.53;;;6.40;99.90;;;;;;5071152;28;20715;-73
2024/02/13 01:20:42;;;;;;;9.68;6.70;;;6.40;99.90;;;;;;5068996;28;20233;-74
2024/02/13 01:23:11;;;;;;;9.48;6.20;;;6.40;99.90;;;;;;5068607;28;20259;-72
2024/02/13 01:25:39;;;;;;;11.57;6.10;;;6.40;99.90;;;;;;5072068;28;20670;-73
2024/02/13 01:28:07;;;;;;;12.43;8.07;;;6.40;99.90;;;;;;5072814;28;20199;-73
2024/02/13 01:30:36;;;;;;;13.57;7.82;;;6.40;99.90;;;;;;5068909;28;20207;-74
2024/02/13 01:33:03;;;;;;;20.30;7.55;;;6.40;99.90;;;;;;5067294;28;20266;-73
2024/02/13 01:35:30;;;;;;;10.80;5.75;;;6.40;99.90;;;;;;5072172;28;20203;-73
2024/02/13 01:37:57;;;;;;;8.77;6.15;;;6.40;99.90;;;;;;5070008;28;20204;-73
2024/02/13 01:40:24;;;;;;;12.52;6.15;;;6.30;99.90;;;;;;5069723;28;20195;-73
2024/02/13 01:42:51;;;;;;;12.35;7.63;;;6.30;99.90;;;;;;5067276;28;20219;-73
2024/02/13 01:45:18;;;;;;;9.05;6.22;;;6.20;99.90;;;;;;5066776;28;20544;-73
2024/02/13 01:47:47;;;;;;;9.40;7.05;;;6.20;99.90;;;;;;5064636;28;20711;-72
2024/02/13 01:50:18;;;;;;;11.13;7.68;;;6.20;99.90;;;;;;5064886;28;20199;-74
2024/02/13 01:52:44;;;;;;;13.57;7.60;;;6.20;99.90;;;;;;5072538;28;20310;-73
2024/02/13 01:55:13;;;;;;;13.85;6.75;;;6.30;99.90;;;;;;5068638;28;20211;-75
2024/02/13 01:57:40;;;;;;;9.45;6.07;;;6.20;99.90;;;;;;5060488;28;20200;-74
2024/02/13 02:00:13;;;;;;;18.10;8.20;;;6.30;99.90;;;;;;5061702;28;20211;-74
2024/02/13 02:02:41;;;;;;;8.70;6.78;;;6.30;99.90;;;;;;5068369;28;20219;-73
2024/02/13 02:05:11;;;;;;;9.95;7.57;;;6.30;99.90;;;;;;5070451;28;20684;-75
2024/02/13 02:07:42;;;;;;;9.70;6.45;;;6.30;99.90;;;;;;5061984;28;20200;-74
2024/02/13 02:10:10;;;;;;;11.38;7.65;;;6.40;99.90;;;;;;5066750;28;20234;-74
2024/02/13 02:12:38;;;;;;;13.30;8.30;;;6.30;99.90;;;;;;5070559;28;20239;-73
2024/02/13 02:15:07;;;;;;;12.75;6.38;;;6.30;99.90;;;;;;5074524;28;20261;-73
2024/02/13 02:17:34;;;;;;;10.80;7.45;;;6.40;99.90;;;;;;5075465;28;20246;-74
2024/02/13 02:20:02;;;;;;;10.90;6.28;;;6.40;99.90;;;;;;5070013;28;20295;-74
2024/02/13 02:22:30;;;;;;;12.48;6.93;;;6.40;99.90;;;;;;5076090;28;20596;-75
2024/02/13 02:24:57;;;;;;;10.35;7.60;;;6.40;99.90;;;;;;5075297;28;20222;-74
2024/02/13 02:27:25;;;;;;;14.27;6.15;;;6.30;99.90;;;;;;5076062;28;20347;-74
2024/02/13 02:29:52;;;;;;;11.43;8.07;;;6.30;99.90;;;;;;5067092;28;20211;-74
2024/02/13 02:32:20;;;;;;;12.05;7.10;;;6.20;99.90;;;;;;5065913;28;20694;-75
2024/02/13 02:34:48;;;;;;;11.25;7.05;;;6.20;99.90;;;;;;5073210;28;20203;-74
2024/02/13 02:37:16;;;;;;;17.38;9.18;;;6.20;99.90;;;;;;5075648;28;20253;-74
2024/02/13 02:39:43;;;;;;;15.98;9.32;;;6.20;99.90;;;;;;5069167;28;20638;-74
2024/02/13 02:42:12;;;;;;;15.50;8.70;;;6.20;99.90;;;;;;5074454;28;20257;-72
2024/02/13 02:44:41;;;;;;;13.10;8.52;;;6.20;99.90;;;;;;5070885;28;20266;-73
2024/02/13 02:47:08;;;;;;;11.80;7.75;;;6.20;99.90;;;;;;5073590;28;20207;-73
2024/02/13 02:49:35;;;;;;;13.25;8.45;;;6.20;99.90;;;;;;5074041;28;20261;-74
2024/02/13 02:52:02;;;;;;;11.77;8.05;;;6.30;99.90;;;;;;5073569;28;20588;-73
2024/02/13 02:54:29;;;;;;;13.27;8.57;;;6.30;99.90;;;;;;5071076;28;20218;-73
2024/02/13 02:56:56;;;;;;;14.60;8.75;;;6.30;99.90;;;;;;5072205;28;20254;-74
2024/02/13 02:59:24;;;;;;;14.15;9.52;;;6.30;99.90;;;;;;5070988;28;20212;-72
2024/02/13 03:01:53;;;;;;;17.50;9.18;;;6.30;99.90;;;;;;5069933;28;20204;-74
2024/02/13 03:04:20;;;;;;;18.77;9.70;;;6.30;99.90;;;;;;5068149;28;20211;-74
2024/02/13 03:06:47;;;;;;;17.25;11.23;;;6.20;99.90;;;;;;5069237;28;20203;-73
2024/02/13 03:09:14;;;;;;;17.92;12.50;;;6.20;99.90;;;;;;5075002;28;20211;-74
2024/02/13 03:11:42;;;;;;;14.27;9.75;;;6.20;99.90;;;;;;5075510;28;20207;-72
2024/02/13 03:14:09;;;;;;;16.50;10.82;;;6.20;99.90;;;;;;5073772;28;20254;-74
2024/02/13 03:16:36;;;;;;;19.55;12.82;;;6.20;99.90;;;;;;5074721;28;20253;-73
2024/02/13 03:19:05;;;;;;;17.40;11.23;;;6.10;99.90;;;;;;5074561;28;20195;-74
2024/02/13 03:21:32;;;;;;;14.93;10.38;;;6.00;99.90;;;;;;5068852;28;20222;-73
2024/02/13 03:23:59;;;;;;;13.90;11.75;;;6.00;99.90;;;;;;5070642;28;20227;-74
2024/02/13 03:26:26;;;;;;;16.17;11.40;;;5.90;99.90;;;;;;5066669;28;20612;-73
2024/02/13 03:28:54;;;;;;;20.25;13.43;;;5.90;99.90;;;;;;5072877;28;20200;-75
2024/02/13 03:31:20;;;;;;;17.55;11.20;;;5.80;99.90;;;;;;5073140;28;20207;-74
2024/02/13 03:33:47;;;;;;;18.98;13.40;;;5.90;99.90;;;;;;5063647;28;20631;-74
2024/02/13 03:36:17;;;;;;;16.23;11.05;;;5.80;99.90;;;;;;5069102;28;20204;-75
2024/02/13 03:38:44;;;;;;;24.42;14.02;;;5.90;99.90;;;;;;5072480;28;20227;-74
2024/02/13 03:41:11;;;;;;;20.38;13.00;;;5.80;99.90;;;;;;5073453;28;20215;-74
2024/02/13 03:43:41;;;;;;;24.40;11.98;;;5.70;99.90;;;;;;5074633;28;20755;-75
2024/02/13 03:46:08;;;;;;;27.25;14.88;;;5.70;99.90;;;;;;5074294;28;20269;-73
2024/02/13 03:48:35;;;;;;;22.23;14.88;;;5.70;99.90;;;;;;5074544;28;20262;-75
2024/02/13 03:51:02;;;;;;;22.20;15.32;;;5.60;99.90;;;;;;5061502;28;20261;-74
2024/02/13 03:53:33;;;;;;;21.92;14.60;;;5.50;99.90;;;;;;5069566;28;20633;-74
2024/02/13 03:56:01;;;;;;;23.23;14.70;;;5.50;99.90;;;;;;5072686;28;20253;-75
2024/02/13 03:58:29;;;;;;;22.58;15.68;;;5.40;99.90;;;;;;5064549;28;20282;-72
2024/02/13 04:00:56;;;;;;;19.95;13.38;;;5.40;99.90;;;;;;5072624;28;20243;-74
2024/02/13 04:03:26;;;;;;;26.13;17.10;;;5.40;99.90;;;;;;5074574;28;20223;-75
2024/02/13 04:05:55;;;;;;;22.90;17.20;;;5.40;99.90;;;;;;5072670;28;20264;-74
2024/02/13 04:08:23;;;;;;;28.80;17.88;;;5.30;99.90;;;;;;5068195;28;20203;-74
2024/02/13 04:10:52;;;;;;;26.45;16.77;;;5.20;99.90;;;;;;5064396;28;20208;-73
2024/02/13 04:13:19;;;;;;;21.92;15.20;;;5.20;99.90;;;;;;5071568;28;20219;-74
2024/02/13 04:15:47;;;;;;;24.02;14.45;;;5.10;99.90;;;;;;5073344;28;20234;-75
2024/02/13 04:18:16;;;;;;;27.65;15.50;;;5.10;99.90;;;;;;5059394;28;20291;-75
2024/02/13 04:20:43;;;;;;;30.40;18.15;;;5.00;99.90;;;;;;5073381;28;20196;-75
2024/02/13 04:23:10;;;;;;;29.92;19.17;;;5.10;99.90;;;;;;5069525;28;20219;-74
2024/02/13 04:25:37;;;;;;;24.73;16.33;;;5.10;99.90;;;;;;5073436;28;20210;-74
2024/02/13 04:28:06;;;;;;;30.08;20.35;;;5.00;99.90;;;;;;5072989;28;20627;-73
2024/02/13 04:30:40;;;;;;;30.17;16.63;;;5.00;99.90;;;;;;5070471;28;20621;-73
2024/02/13 04:33:08;;;;;;;23.92;17.75;;;5.00;99.90;;;;;;5071181;28;20223;-74
2024/02/13 04:35:35;;;;;;;29.25;18.42;;;5.00;99.90;;;;;;5072106;28;20241;-73
2024/02/13 04:38:03;;;;;;;28.85;18.05;;;5.10;99.90;;;;;;5068450;28;20269;-73
2024/02/13 04:40:30;;;;;;;36.25;19.95;;;5.00;99.90;;;;;;5073329;28;20207;-72
2024/02/13 04:42:57;;;;;;;30.90;18.70;;;5.00;99.90;;;;;;5070599;28;20732;-73
2024/02/13 04:45:25;;;;;;;24.77;16.08;;;5.10;99.90;;;;;;5071297;28;20199;-73
2024/02/13 04:47:52;;;;;;;28.60;17.48;;;5.00;99.90;;;;;;5073148;28;20265;-74
2024/02/13 04:50:20;;;;;;;26.92;15.45;;;5.10;99.90;;;;;;5070673;28;20200;-74
2024/02/13 04:52:47;;;;;;;25.33;15.13;;;5.10;99.90;;;;;;5072996;28;20227;-73
2024/02/13 04:55:14;;;;;;;23.98;18.95;;;5.10;99.90;;;;;;5067849;28;20249;-75
2024/02/13 04:57:41;;;;;;;37.65;19.27;;;5.20;99.90;;;;;;5073053;28;20599;-74
2024/02/13 05:00:18;;;;;;;36.58;21.00;;;5.20;99.90;;;;;;5070855;28;20196;-75
2024/02/13 05:02:50;;;;;;;31.92;18.92;;;5.20;99.90;;;;;;5069132;28;20226;-73
2024/02/13 05:08:16;;;;;;;29.33;19.92;;;5.20;99.90;;;;;;4989871;28;20221;-74
2024/02/13 05:10:43;;;;;;;27.08;20.35;;;5.20;99.90;;;;;;4974425;28;20234;-72
2024/02/13 05:13:14;;;;;;;26.08;17.30;;;5.20;99.90;;;;;;5016161;28;20236;-73
2024/02/13 05:15:41;;;;;;;33.78;21.27;;;5.20;99.90;;;;;;5070650;28;20195;-72
2024/02/13 05:18:10;;;;;;;37.65;22.20;;;5.20;99.90;;;;;;5062776;28;20207;-72
2024/02/13 05:20:37;;;;;;;30.75;20.75;;;5.10;99.90;;;;;;5067145;28;20199;-73
2024/02/13 05:23:06;;;;;;;41.00;23.73;;;5.20;99.90;;;;;;5066938;28;20223;-73
2024/02/13 05:25:33;;;;;;;34.08;24.77;;;5.20;99.90;;;;;;5063778;28;20567;-75
2024/02/13 05:28:00;;;;;;;27.23;20.10;;;5.10;99.90;;;;;;5072352;28;20311;-74
2024/02/13 05:30:27;;;;;;;30.88;20.83;;;5.10;99.90;;;;;;5071345;28;20286;-73
2024/02/13 05:32:54;;;;;;;33.60;23.55;;;5.10;99.90;;;;;;5068972;28;20286;-74
2024/02/13 05:35:24;;;;;;;36.28;23.63;;;5.10;99.90;;;;;;5065779;28;20207;-73
2024/02/13 05:37:52;;;;;;;33.63;22.05;;;5.00;99.90;;;;;;5072456;28;20195;-74
2024/02/13 05:40:20;;;;;;;35.72;23.08;;;5.00;99.90;;;;;;5071613;28;20206;-72
2024/02/13 05:42:47;;;;;;;45.15;25.08;;;5.00;99.90;;;;;;5072304;28;20215;-72
2024/02/13 05:45:14;;;;;;;38.20;23.77;;;5.00;99.90;;;;;;5072033;28;20516;-74
2024/02/13 05:47:41;;;;;;;36.60;24.17;;;5.00;99.90;;;;;;5072611;28;20214;-72
2024/02/13 05:50:10;;;;;;;37.45;22.05;;;5.00;99.90;;;;;;5071472;28;20200;-74
2024/02/13 05:52:40;;;;;;;45.88;26.58;;;5.00;99.90;;;;;;5072723;28;20230;-73
2024/02/13 05:55:08;;;;;;;41.58;24.50;;;4.90;99.90;;;;;;5072086;28;20199;-74
2024/02/13 05:57:38;;;;;;;30.70;23.02;;;4.90;99.90;;;;;;5072421;28;20200;-72
2024/02/13 06:00:09;;;;;;;51.55;25.13;;;4.90;99.90;;;;;;5071301;28;20199;-73
2024/02/13 06:02:38;;;;;;;36.95;24.08;;;4.90;99.90;;;;;;5070631;28;20307;-74
2024/02/13 06:05:06;;;;;;;39.42;25.15;;;4.90;99.90;;;;;;5071973;28;20210;-74
2024/02/13 06:07:33;;;;;;;32.78;24.88;;;4.90;99.90;;;;;;5072236;28;20203;-74
2024/02/13 06:10:01;;;;;;;40.42;25.77;;;4.90;99.90;;;;;;5068697;28;20277;-72
2024/02/13 06:12:29;;;;;;;47.35;28.08;;;4.90;99.90;;;;;;5068926;28;20215;-73
2024/02/13 06:14:56;;;;;;;41.38;24.75;;;5.00;99.90;;;;;;5072087;28;20577;-73
2024/02/13 06:17:24;;;;;;;48.10;29.27;;;4.90;99.90;;;;;;5071629;28;20203;-74
2024/02/13 06:19:51;;;;;;;50.20;27.30;;;4.80;99.90;;;;;;5071900;28;20290;-76
2024/02/13 06:22:19;;;;;;;44.50;29.35;;;4.90;99.90;;;;;;5071749;28;20227;-73
2024/02/13 06:24:46;;;;;;;49.88;29.27;;;4.90;99.90;;;;;;5072016;28;20211;-73
2024/02/13 06:27:15;;;;;;;45.60;26.60;;;4.90;99.90;;;;;;5067697;28;20211;-72
2024/02/13 06:29:44;;;;;;;43.78;27.73;;;4.90;99.90;;;;;;5066571;28;20216;-73
2024/02/13 06:32:12;;;;;;;39.58;26.30;;;4.90;99.90;;;;;;5070932;28;20294;-74
2024/02/13 06:34:40;;;;;;;41.17;25.45;;;5.00;99.90;;;;;;5061389;28;20232;-74
2024/02/13 06:37:07;;;;;;;36.63;26.20;;;5.00;99.90;;;;;;5072391;28;20269;-74
2024/02/13 06:39:34;;;;;;;43.22;27.30;;;4.90;99.90;;;;;;5059945;28;20616;-74
2024/02/13 06:42:01;;;;;;;41.63;26.67;;;4.90;99.90;;;;;;5068064;28;20215;-74
2024/02/13 06:44:31;;;;;;;44.88;26.55;;;4.90;99.90;;;;;;5069030;28;20622;-74
2024/02/13 06:46:59;;;;;;;50.08;26.15;;;4.90;99.90;;;;;;5064089;28;20204;-76
2024/02/13 06:49:27;;;;;;;34.92;24.67;;;5.00;99.90;;;;;;5064461;28;20598;-75
2024/02/13 06:51:54;;;;;;;32.55;22.73;;;5.00;99.90;;;;;;5068921;28;20253;-76
2024/02/13 06:54:21;;;;;;;44.92;27.33;;;5.10;99.90;;;;;;5062262;28;20634;-73
2024/02/13 06:56:48;;;;;;;41.53;24.70;;;5.10;99.90;;;;;;5070388;28;20613;-75
2024/02/13 06:59:15;;;;;;;37.60;24.60;;;5.10;99.90;;;;;;5074307;28;20231;-76
2024/02/13 07:01:43;;;;;;;36.22;22.02;;;5.10;99.90;;;;;;5074932;28;20662;-74
2024/02/13 07:04:10;;;;;;;35.22;25.70;;;5.20;99.90;;;;;;5071461;28;20767;-76
2024/02/13 07:06:37;;;;;;;34.70;24.25;;;5.20;99.90;;;;;;5073489;28;20199;-73
2024/02/13 07:09:05;;;;;;;33.10;22.65;;;5.30;99.90;;;;;;5069426;28;20207;-77
2024/02/13 07:11:32;;;;;;;36.92;25.38;;;5.40;99.90;;;;;;5064187;28;20212;-74
2024/02/13 07:14:00;;;;;;;33.65;23.30;;;5.30;99.90;;;;;;5074617;28;20227;-74
2024/02/13 07:16:27;;;;;;;34.92;25.20;;;5.30;99.90;;;;;;5067209;28;20549;-75
2024/02/13 07:18:55;;;;;;;35.78;24.25;;;5.40;99.90;;;;;;5074321;28;20202;-77
2024/02/13 07:21:24;;;;;;;32.63;23.50;;;5.50;99.90;;;;;;5067550;28;20204;-76
2024/02/13 07:23:54;;;;;;;30.58;20.85;;;5.60;99.90;;;;;;5074432;28;20212;-75
2024/02/13 07:26:22;;;;;;;38.63;25.17;;;5.60;99.90;;;;;;5065714;28;20208;-76
2024/02/13 07:28:49;;;;;;;39.85;25.00;;;5.60;99.90;;;;;;5066449;28;20295;-81
2024/02/13 07:31:19;;;;;;;26.85;22.48;;;5.70;99.90;;;;;;5072170;28;20231;-75
2024/02/13 07:33:46;;;;;;;26.38;21.10;;;6.00;99.90;;;;;;5067478;28;20255;-76
2024/02/13 07:36:16;;;;;;;28.92;21.08;;;6.20;99.90;;;;;;5070543;28;20250;-74
2024/02/13 07:38:43;;;;;;;25.98;21.27;;;6.10;99.90;;;;;;5071226;28;20207;-74
2024/02/13 07:41:11;;;;;;;28.58;20.08;;;6.50;99.90;;;;;;5067074;28;20231;-74
2024/02/13 07:43:37;;;;;;;30.67;21.55;;;6.80;99.90;;;;;;5068171;28;20219;-75
2024/02/13 07:46:05;;;;;;;25.73;19.70;;;6.70;99.90;;;;;;5070179;28;20657;-75
2024/02/13 07:48:33;;;;;;;34.15;22.83;;;6.70;99.90;;;;;;5074627;28;20237;-77
2024/02/13 07:51:01;;;;;;;27.30;21.90;;;6.90;99.90;;;;;;5073039;28;20283;-76
2024/02/13 07:53:31;;;;;;;25.63;20.90;;;7.30;99.90;;;;;;5073110;28;20752;-76
2024/02/13 07:55:59;;;;;;;20.42;16.75;;;7.70;99.90;;;;;;5072814;28;20263;-76
2024/02/13 07:58:26;;;;;;;31.42;19.75;;;8.20;99.90;;;;;;5071328;28;20207;-75
2024/02/13 08:00:53;;;;;;;25.73;20.65;;;8.40;99.90;;;;;;5071825;28;20196;-75
2024/02/13 08:03:21;;;;;;;27.17;19.02;;;8.20;99.90;;;;;;5070788;28;20289;-77
2024/02/13 08:05:48;;;;;;;31.15;20.45;;;8.10;99.90;;;;;;5071049;28;20646;-74
2024/02/13 08:08:14;;;;;;;31.90;20.45;;;7.90;99.90;;;;;;5070089;28;20863;-72
2024/02/13 08:10:46;;;;;;;30.50;20.70;;;7.50;99.90;;;;;;5069442;28;20257;-75
2024/02/13 08:13:13;;;;;;;33.40;23.02;;;7.40;99.90;;;;;;5069364;28;20719;-75
2024/02/13 08:15:39;;;;;;;28.63;21.85;;;7.50;99.90;;;;;;5072685;28;20235;-73
2024/02/13 08:18:07;;;;;;;29.90;22.63;;;7.20;99.90;;;;;;5073872;28;20204;-74
2024/02/13 08:20:34;;;;;;;32.70;21.98;;;7.00;99.90;;;;;;5072587;28;20203;-73
2024/02/13 08:23:03;;;;;;;28.83;22.83;;;7.00;99.90;;;;;;5072587;28;20216;-74
2024/02/13 08:25:30;;;;;;;39.55;24.55;;;6.90;99.90;;;;;;5065599;28;20282;-74
2024/02/13 08:27:58;;;;;;;37.58;23.85;;;6.70;99.90;;;;;;5073874;28;20303;-72
2024/02/13 08:30:26;;;;;;;32.75;21.80;;;6.80;99.90;;;;;;5069998;28;20290;-74
2024/02/13 08:32:53;;;;;;;31.95;22.23;;;6.90;99.90;;;;;;5062391;28;20230;-76
2024/02/13 08:35:20;;;;;;;28.73;19.65;;;7.10;99.90;;;;;;5070931;28;20212;-73
2024/02/13 08:37:51;;;;;;;33.42;22.35;;;7.30;99.90;;;;;;5069277;28;20203;-73
2024/02/13 08:40:19;;;;;;;28.02;21.00;;;7.50;99.90;;;;;;5071234;28;20286;-72
2024/02/13 08:42:46;;;;;;;26.58;19.50;;;7.80;99.90;;;;;;5069075;28;20214;-73
2024/02/13 08:45:15;;;;;;;27.50;21.45;;;8.00;99.90;;;;;;5070260;28;20285;-74
2024/02/13 08:47:42;;;;;;;25.77;20.30;;;8.20;99.90;;;;;;5072943;28;20721;-75
2024/02/13 08:50:09;;;;;;;27.10;20.45;;;8.70;99.90;;;;;;5070503;28;20204;-75
2024/02/13 08:52:36;;;;;;;25.83;19.48;;;8.70;99.90;;;;;;5073505;28;20219;-75
2024/02/13 08:55:04;;;;;;;29.55;22.55;;;8.70;99.90;;;;;;5071281;28;20678;-76
2024/02/13 08:57:31;;;;;;;25.80;20.50;;;8.50;99.90;;;;;;5065598;28;20265;-73
2024/02/13 08:59:58;;;;;;;33.17;24.00;;;8.40;99.90;;;;;;5071740;28;20242;-75
2024/02/13 09:02:26;;;;;;;27.20;22.25;;;7.90;99.90;;;;;;5070176;28;20220;-74
2024/02/13 09:04:53;;;;;;;24.52;19.85;;;7.70;99.90;;;;;;5066634;28;20276;-73
2024/02/13 09:07:20;;;;;;;31.20;21.30;;;7.70;99.90;;;;;;5070825;28;20645;-74
2024/02/13 09:09:47;;;;;;;35.85;21.83;;;7.50;99.90;;;;;;5071152;28;20243;-75
2024/02/13 09:12:14;;;;;;;27.05;19.92;;;7.60;99.90;;;;;;5072192;28;20235;-74
2024/02/13 09:14:41;;;;;;;29.23;21.75;;;7.60;99.90;;;;;;5071378;28;20300;-74
2024/02/13 09:17:10;;;;;;;23.80;19.35;;;7.60;99.90;;;;;;5070807;28;20264;-75
2024/02/13 09:19:42;;;;;;;23.08;19.15;;;7.70;99.90;;;;;;5071487;28;20195;-75
2024/02/13 09:22:09;;;;;;;21.08;16.90;;;7.60;99.90;;;;;;5069867;28;20294;-75
2024/02/13 09:24:37;;;;;;;26.75;21.25;;;7.80;99.90;;;;;;5072366;28;20360;-74
2024/02/13 09:27:05;;;;;;;30.77;20.95;;;7.70;99.90;;;;;;5070313;28;20681;-74
2024/02/13 09:29:32;;;;;;;30.08;20.60;;;7.70;99.90;;;;;;5075308;28;20568;-74
2024/02/13 09:31:59;;;;;;;28.52;20.95;;;7.80;99.90;;;;;;5072189;28;20564;-74
2024/02/13 09:34:27;;;;;;;27.92;20.17;;;7.80;99.90;;;;;;5072897;28;20211;-74
2024/02/13 09:36:55;;;;;;;25.23;19.58;;;8.00;99.90;;;;;;5071507;28;20204;-75
2024/02/13 09:39:22;;;;;;;27.90;19.70;;;7.90;99.90;;;;;;5066937;28;20277;-76
2024/02/13 09:41:51;;;;;;;25.15;19.60;;;8.00;99.90;;;;;;5066945;28;20269;-77
2024/02/13 09:44:19;;;;;;;25.40;18.30;;;8.00;99.90;;;;;;5065073;28;20255;-76
2024/02/13 09:46:47;;;;;;;25.23;18.75;;;8.10;99.90;;;;;;5071910;28;20289;-74
2024/02/13 09:49:17;;;;;;;27.92;18.15;;;7.90;99.90;;;;;;5070579;28;20227;-73
2024/02/13 09:51:49;;;;;;;23.50;18.27;;;7.90;99.90;;;;;;5070832;28;20207;-75
2024/02/13 09:54:18;;;;;;;23.50;17.90;;;7.80;99.90;;;;;;5071856;28;20223;-75
2024/02/13 09:56:46;;;;;;;31.25;19.67;;;7.80;99.90;;;;;;5069026;28;20751;-74
2024/02/13 09:59:14;;;;;;;27.75;18.23;;;7.80;99.90;;;;;;5062332;28;20618;-73
2024/02/13 10:01:41;;;;;;;23.95;16.60;;;7.90;99.90;;;;;;5071162;28;20666;-73
2024/02/13 10:04:08;;;;;;;24.58;17.98;;;8.10;99.90;;;;;;5070719;28;20758;-74
2024/02/13 10:06:35;;;;;;;27.02;17.75;;;8.00;99.90;;;;;;5068777;28;20732;-75
2024/02/13 10:09:05;;;;;;;19.30;16.50;;;7.90;99.90;;;;;;5070720;28;20298;-74
2024/02/13 10:11:36;;;;;;;24.65;16.90;;;8.00;99.90;;;;;;5063188;28;20206;-74
2024/02/13 10:14:05;;;;;;;23.38;16.52;;;8.10;99.90;;;;;;5070896;28;20231;-73
2024/02/13 10:16:32;;;;;;;26.52;18.40;;;8.30;99.90;;;;;;5065546;28;20664;-76
2024/02/13 10:19:01;;;;;;;26.98;18.88;;;8.30;99.90;;;;;;5063833;28;20211;-75
2024/02/13 10:21:29;;;;;;;23.80;17.67;;;8.20;99.90;;;;;;5068353;28;20667;-73
2024/02/13 10:24:06;;;;;;;28.75;16.98;;;8.30;99.90;;;;;;5068430;28;20255;-76
2024/02/13 10:26:36;;;;;;;25.75;17.55;;;8.30;99.90;;;;;;5066677;28;20661;-73
2024/02/13 10:29:03;;;;;;;21.00;16.17;;;8.30;99.90;;;;;;5068196;28;20211;-74
2024/02/13 10:31:34;;;;;;;21.27;16.20;;;8.30;99.90;;;;;;5063628;28;20217;-74
2024/02/13 10:34:03;;;;;;;23.33;16.88;;;8.40;99.90;;;;;;5073765;28;20593;-75
2024/02/13 10:36:32;;;;;;;24.55;17.30;;;8.40;99.90;;;;;;5074378;28;20210;-72
2024/02/13 10:39:03;;;;;;;36.75;17.30;;;8.30;99.90;;;;;;5068865;28;20191;-74
2024/02/13 10:41:33;;;;;;;25.48;16.40;;;8.20;99.90;;;;;;5069330;28;20673;-75
2024/02/13 10:44:03;;;;;;;21.40;16.73;;;8.30;99.90;;;;;;5069281;28;20599;-75
2024/02/13 10:46:36;;;;;;;24.30;16.83;;;8.30;99.90;;;;;;5072536;28;20207;-76
2024/02/13 10:49:14;;;;;;;27.70;16.15;;;8.10;99.90;;;;;;5075214;28;20207;-74
2024/02/13 10:51:41;;;;;;;22.38;14.48;;;8.30;99.90;;;;;;5060792;28;20203;-75
2024/02/13 10:54:12;;;;;;;22.00;16.13;;;8.70;99.90;;;;;;5072364;28;20219;-74
2024/02/13 10:56:40;;;;;;;21.20;15.02;;;8.70;99.90;;;;;;5069332;28;20204;-75
2024/02/13 10:59:09;;;;;;;21.63;15.30;;;8.60;99.90;;;;;;5073317;28;20254;-74
2024/02/13 11:01:37;;;;;;;26.40;16.88;;;8.70;99.90;;;;;;5070385;28;20211;-75
2024/02/13 11:04:05;;;;;;;26.17;15.48;;;8.70;99.90;;;;;;5071528;28;20222;-74
2024/02/13 11:06:33;;;;;;;27.58;16.77;;;8.50;99.90;;;;;;5073552;28;20199;-74
2024/02/13 11:09:01;;;;;;;21.88;15.18;;;8.60;99.90;;;;;;5074281;28;20227;-75
2024/02/13 11:11:29;;;;;;;19.80;15.20;;;8.60;99.90;;;;;;5066474;28;20196;-75
2024/02/13 11:13:57;;;;;;;39.75;14.93;;;8.70;99.90;;;;;;5070832;28;20294;-75
2024/02/13 11:16:25;;;;;;;23.52;17.33;;;8.70;99.90;;;;;;5073858;28;20255;-75
2024/02/13 11:18:53;;;;;;;19.75;14.98;;;8.60;99.90;;;;;;5073971;28;20239;-76
2024/02/13 11:21:21;;;;;;;20.60;14.23;;;8.60;99.90;;;;;;5074323;28;20222;-75
2024/02/13 11:23:53;;;;;;;21.80;13.05;;;8.90;99.90;;;;;;5073987;28;20274;-75
2024/02/13 11:26:20;;;;;;;21.52;14.82;;;9.10;99.90;;;;;;5069030;28;20525;-75
2024/02/13 11:28:48;;;;;;;17.50;13.63;;;9.40;99.90;;;;;;5074493;28;20261;-74
2024/02/13 11:31:16;;;;;;;23.83;14.10;;;9.40;99.90;;;;;;5072776;28;20290;-73
2024/02/13 11:34:04;;;;;;;24.27;12.75;;;9.40;99.90;;;;;;5069266;28;20216;-75
2024/02/13 11:36:32;;;;;;;22.10;13.68;;;9.40;99.90;;;;;;5073856;28;20690;-74
2024/02/13 11:39:03;;;;;;;20.50;12.75;;;9.60;99.90;;;;;;5073963;28;20262;-75
2024/02/13 11:41:31;;;;;;;15.80;12.27;;;9.60;99.90;;;;;;5066540;28;20294;-73
2024/02/13 11:44:07;;;;;;;24.25;13.60;;;9.70;99.90;;;;;;5073371;28;20302;-75
2024/02/13 11:46:36;;;;;;;19.95;14.75;;;9.60;99.90;;;;;;5067600;28;20250;-76
2024/02/13 11:49:07;;;;;;;14.13;11.23;;;9.70;99.90;;;;;;5073350;28;20282;-73
2024/02/13 11:51:36;;;;;;;19.00;13.40;;;9.80;99.90;;;;;;5070970;28;20203;-73
2024/02/13 11:54:05;;;;;;;15.90;12.07;;;9.70;99.90;;;;;;5074369;28;20222;-74
2024/02/13 11:56:32;;;;;;;16.40;13.45;;;9.60;99.90;;;;;;5073944;28;20574;-74
2024/02/13 11:59:05;;;;;;;17.13;12.50;;;9.60;99.90;;;;;;5073013;28;20221;-74
2024/02/13 12:01:34;;;;;;;18.50;12.70;;;9.60;99.90;;;;;;5069000;28;20200;-73
2024/02/13 12:04:02;;;;;;;16.88;13.30;;;9.70;99.90;;;;;;5065410;28;20220;-74
2024/02/13 12:06:31;;;;;;;16.55;12.60;;;9.80;99.90;;;;;;5073146;28;20196;-73
2024/02/13 12:09:00;;;;;;;17.98;13.27;;;10.00;99.90;;;;;;5072987;28;20289;-74
2024/02/13 12:11:29;;;;;;;21.05;12.77;;;9.80;99.90;;;;;;5074291;28;20226;-74
2024/02/13 12:13:56;;;;;;;19.10;11.98;;;9.70;99.90;;;;;;5071292;28;20306;-73
2024/02/13 12:16:23;;;;;;;19.60;15.05;;;9.70;99.90;;;;;;5073878;28;20223;-75
2024/02/13 12:18:50;;;;;;;20.40;12.20;;;9.70;99.90;;;;;;5072321;28;20203;-74
2024/02/13 12:21:18;;;;;;;14.43;10.40;;;9.70;99.90;;;;;;5070792;28;20211;-73
2024/02/13 12:23:50;;;;;;;26.63;12.45;;;9.60;99.90;;;;;;5067159;28;20669;-76
2024/02/13 12:26:17;;;;;;;25.52;13.02;;;9.90;99.90;;;;;;5069175;28;20200;-73
2024/02/13 12:28:53;;;;;;;13.90;11.55;;;10.10;99.90;;;;;;5073730;28;20272;-74
2024/02/13 12:31:22;;;;;;;12.40;10.00;;;10.10;99.90;;;;;;5072471;28;20637;-75
2024/02/13 12:33:49;;;;;;;12.57;11.05;;;10.10;99.90;;;;;;5073217;28;20304;-72
2024/02/13 12:36:25;;;;;;;16.15;10.68;;;10.40;99.90;;;;;;5072612;28;20280;-75
2024/02/13 12:39:08;;;;;;;14.57;11.15;;;10.40;99.90;;;;;;5073688;28;20641;-74
2024/02/13 12:41:35;;;;;;;13.85;9.93;;;10.40;99.90;;;;;;5063339;28;20195;-76
2024/02/13 12:44:02;;;;;;;22.35;10.93;;;10.40;99.90;;;;;;5067893;28;20308;-74
2024/02/13 12:46:36;;;;;;;14.52;9.85;;;10.40;99.90;;;;;;5071290;28;20200;-73
2024/02/13 12:49:05;;;;;;;13.95;11.10;;;10.40;99.90;;;;;;5067769;28;20553;-73